Time;durP1;ratioP1;P1;durP2;ratioP2;P2;SDS_P1;SDS_P2;PMS_P1;PMS_P2;Temp;Humidity;BMP_temperature;BMP_pressure;BME280_temperature;BME280_humidity;BME280_pressure;Samples;Min_cycle;Max_cycle;Signal;HPM_P1;HPM_P2
2021/01/13 00:01:49;;;;;;;16.03;11.10;;;;;;;3.35;100.00;102216.19;1845796;78;26732;-75
2021/01/13 00:04:19;;;;;;;14.43;10.83;;;;;;;3.21;100.00;102219.39;1845988;78;26210;-75
2021/01/13 00:06:51;;;;;;;16.27;11.73;;;;;;;3.16;100.00;102212.31;1845947;78;26230;-75
2021/01/13 00:09:24;;;;;;;14.03;10.83;;;;;;;3.13;100.00;102206.36;1845898;78;26203;-76
2021/01/13 00:11:58;;;;;;;17.83;11.23;;;;;;;3.04;100.00;102219.92;1845833;78;26634;-75
2021/01/13 00:14:28;;;;;;;16.43;11.07;;;;;;;2.94;100.00;102208.48;1845809;78;26190;-75
2021/01/13 00:16:58;;;;;;;17.80;11.53;;;;;;;2.93;100.00;102210.89;1845825;78;26642;-75
2021/01/13 00:19:28;;;;;;;17.47;11.57;;;;;;;2.90;100.00;102219.02;1845846;78;26214;-75
2021/01/13 00:21:58;;;;;;;16.37;11.60;;;;;;;3.01;100.00;102215.70;1845858;78;26708;-76
2021/01/13 00:24:28;;;;;;;18.50;11.73;;;;;;;3.08;100.00;102211.08;1845958;78;26758;-75
2021/01/13 00:27:01;;;;;;;15.70;11.67;;;;;;;3.12;100.00;102208.25;1845743;76;26270;-75
2021/01/13 00:29:31;;;;;;;18.17;10.73;;;;;;;3.11;100.00;102202.98;1845839;78;26270;-75
2021/01/13 00:32:01;;;;;;;15.07;10.17;;;;;;;2.96;100.00;102196.76;1846029;78;26308;-75
2021/01/13 00:34:32;;;;;;;16.67;11.23;;;;;;;3.07;100.00;102192.94;1845901;78;26316;-75
2021/01/13 00:37:01;;;;;;;19.17;11.70;;;;;;;2.97;100.00;102192.97;1845811;78;26219;-75
2021/01/13 00:39:31;;;;;;;16.73;11.63;;;;;;;3.07;100.00;102192.94;1845848;78;26211;-75
2021/01/13 00:42:02;;;;;;;18.23;12.37;;;;;;;3.07;100.00;102185.23;1845916;78;26230;-75
2021/01/13 00:44:32;;;;;;;15.33;10.40;;;;;;;3.05;100.00;102188.16;1845847;78;26296;-75
2021/01/13 00:47:02;;;;;;;18.20;11.63;;;;;;;3.05;100.00;102186.80;1845839;78;26258;-75
2021/01/13 00:49:32;;;;;;;16.90;11.00;;;;;;;2.93;100.00;102176.59;1846107;78;26657;-75
2021/01/13 00:52:02;;;;;;;17.63;12.13;;;;;;;2.93;100.00;102182.08;1846086;78;26300;-75
2021/01/13 00:54:32;;;;;;;14.43;10.60;;;;;;;2.76;100.00;102185.67;1845886;78;26215;-75
2021/01/13 00:57:02;;;;;;;18.77;11.77;;;;;;;2.70;100.00;102189.20;1845853;78;26732;-76
2021/01/13 00:59:31;;;;;;;17.70;11.90;;;;;;;2.66;100.00;102183.28;1845897;78;26296;-76
2021/01/13 01:02:01;;;;;;;13.70;10.37;;;;;;;2.66;100.00;102180.53;1845898;78;26207;-76
2021/01/13 01:04:31;;;;;;;15.47;10.13;;;;;;;2.78;100.00;102178.10;1845842;78;26215;-76
2021/01/13 01:07:03;;;;;;;12.50;9.63;;;;;;;2.64;100.00;102181.80;1845854;78;26238;-76
2021/01/13 01:09:32;;;;;;;14.87;9.97;;;;;;;2.75;100.00;102181.23;1846220;78;26286;-76
2021/01/13 01:12:03;;;;;;;15.37;11.03;;;;;;;2.66;100.00;102187.91;1845861;78;26238;-76
2021/01/13 01:14:33;;;;;;;17.37;10.53;;;;;;;2.60;100.00;102176.39;1845835;78;26227;-76
2021/01/13 01:17:04;;;;;;;16.43;10.77;;;;;;;2.72;100.00;102181.12;1845948;78;26242;-76
2021/01/13 01:19:34;;;;;;;17.90;11.30;;;;;;;2.75;100.00;102179.86;1846281;76;26305;-77
2021/01/13 01:22:05;;;;;;;22.17;11.97;;;;;;;2.67;100.00;102175.38;1808816;79;26314;-76
2021/01/13 01:24:35;;;;;;;16.47;11.13;;;;;;;2.85;100.00;102178.98;1840691;77;26264;-76
2021/01/13 01:27:05;;;;;;;16.77;11.10;;;;;;;2.88;100.00;102170.85;1840335;76;26339;-75
2021/01/13 01:29:35;;;;;;;17.50;11.13;;;;;;;2.93;100.00;102166.98;1840532;78;26225;-75
2021/01/13 01:32:05;;;;;;;17.20;11.43;;;;;;;2.99;100.00;102169.78;1840530;78;26310;-76
2021/01/13 01:34:35;;;;;;;15.63;11.50;;;;;;;3.10;100.00;102166.45;1840637;78;26229;-75
2021/01/13 01:37:06;;;;;;;20.77;12.00;;;;;;;3.07;100.00;102162.75;1840511;78;26225;-76
2021/01/13 01:39:36;;;;;;;17.77;12.37;;;;;;;3.06;100.00;102167.91;1840544;78;26782;-76
2021/01/13 01:42:06;;;;;;;16.87;11.37;;;;;;;2.93;100.00;102164.23;1840449;78;26231;-76
2021/01/13 01:44:36;;;;;;;18.30;11.83;;;;;;;3.02;100.00;102165.25;1840572;78;26222;-76
2021/01/13 01:47:07;;;;;;;18.43;12.10;;;;;;;2.99;100.00;102165.66;1840540;78;26338;-76
2021/01/13 01:49:39;;;;;;;17.47;11.77;;;;;;;2.90;100.00;102162.77;1840744;78;26632;-77
2021/01/13 01:52:13;;;;;;;17.77;12.03;;;;;;;3.02;100.00;102158.91;1840609;78;26248;-76
2021/01/13 01:54:46;;;;;;;18.97;11.80;;;;;;;3.05;100.00;102163.98;1821295;78;26725;-76
2021/01/13 01:57:19;;;;;;;18.50;11.97;;;;;;;3.11;100.00;102163.17;1825774;77;26284;-76
2021/01/13 01:59:54;;;;;;;18.93;12.47;;;;;;;2.93;100.00;102163.72;1846025;78;26222;-76
2021/01/13 02:02:26;;;;;;;18.97;11.93;;;;;;;2.75;100.00;102160.13;1812798;78;26758;-76
2021/01/13 02:04:57;;;;;;;18.80;11.73;;;;;;;2.89;100.00;102154.20;1807862;79;26209;-76
2021/01/13 02:07:34;;;;;;;19.27;12.30;;;;;;;2.84;100.00;102155.33;1844331;78;26230;-75
2021/01/13 02:10:07;;;;;;;16.97;11.77;;;;;;;2.96;100.00;102153.70;1845763;78;26204;-75
2021/01/13 02:12:37;;;;;;;16.57;11.23;;;;;;;2.89;100.00;102156.94;1845757;78;26292;-76
2021/01/13 02:15:09;;;;;;;15.73;11.50;;;;;;;2.90;100.00;102150.94;1845769;78;26658;-77
2021/01/13 02:17:41;;;;;;;17.53;11.13;;;;;;;2.80;100.00;102160.05;1845752;77;26210;-77
2021/01/13 02:20:16;;;;;;;13.53;9.70;;;;;;;2.78;100.00;102158.05;1845719;78;26226;-76
2021/01/13 02:23:08;;;;;;;15.37;9.87;;;;;;;2.83;100.00;102158.26;1845761;78;26207;-76
2021/01/13 02:26:27;;;;;;;14.67;9.60;;;;;;;2.73;100.00;102166.36;1845884;78;26289;-76
2021/01/13 02:29:03;;;;;;;17.80;10.57;;;;;;;2.84;100.00;102170.94;1796191;78;26282;-77
2021/01/13 02:31:53;;;;;;;13.60;10.03;;;;;;;2.78;100.00;102180.00;1844295;77;26299;-76
2021/01/13 02:34:58;;;;;;;17.37;10.40;;;;;;;2.70;100.00;102179.09;1840546;77;26196;-77
2021/01/13 02:37:45;;;;;;;16.97;10.93;;;;;;;2.69;100.00;102174.67;1834366;78;26292;-77
2021/01/13 02:40:20;;;;;;;19.40;10.57;;;;;;;2.77;100.00;102159.09;1846117;78;26246;-77
2021/01/13 02:43:09;;;;;;;17.23;10.77;;;;;;;2.75;100.00;102156.02;1845994;78;26296;-77
2021/01/13 02:45:42;;;;;;;16.87;10.47;;;;;;;2.85;100.00;102161.66;1845846;78;26198;-76
2021/01/13 02:48:18;;;;;;;22.20;11.53;;;;;;;2.94;100.00;102159.93;1845802;78;26222;-76
2021/01/13 02:50:55;;;;;;;16.13;10.50;;;;;;;2.93;100.00;102163.72;1845870;78;26288;-76
2021/01/13 02:54:11;;;;;;;17.37;11.03;;;;;;;2.87;100.00;102158.20;1845914;78;26669;-76
2021/01/13 02:56:44;;;;;;;16.70;10.50;;;;;;;2.84;100.00;102156.70;1849002;76;26195;-76
2021/01/13 02:59:15;;;;;;;16.50;10.43;;;;;;;2.84;100.00;102167.67;1845795;78;26261;-76
2021/01/13 03:01:46;;;;;;;15.23;10.90;;;;;;;2.92;100.00;102164.77;1845806;78;26242;-75
2021/01/13 03:04:17;;;;;;;12.67;9.33;;;;;;;3.04;100.00;102165.02;1845924;78;26207;-76
2021/01/13 03:06:48;;;;;;;13.83;9.77;;;;;;;3.13;100.00;102161.06;1845777;78;26280;-76
2021/01/13 03:09:20;;;;;;;16.00;11.37;;;;;;;3.32;100.00;102161.69;1845820;78;26752;-76
2021/01/13 03:11:50;;;;;;;17.67;10.67;;;;;;;3.36;100.00;102161.59;1845968;78;26653;-76
2021/01/13 03:14:23;;;;;;;16.83;10.53;;;;;;;3.51;100.00;102165.53;1845970;78;26214;-76
2021/01/13 03:17:08;;;;;;;14.77;9.87;;;;;;;3.57;100.00;102169.69;1845799;76;26630;-76
2021/01/13 03:20:10;;;;;;;14.00;10.27;;;;;;;3.63;100.00;102166.65;1808824;78;26359;-76
2021/01/13 03:22:43;;;;;;;16.90;10.17;;;;;;;3.58;100.00;102164.52;1810415;79;26217;-76
2021/01/13 03:25:14;;;;;;;13.53;9.93;;;;;;;3.38;100.00;102162.77;1808918;79;26219;-76
2021/01/13 03:27:47;;;;;;;15.00;10.80;;;;;;;3.41;100.00;102153.59;1842093;76;26268;-76
2021/01/13 03:30:21;;;;;;;15.73;10.10;;;;;;;3.49;100.00;102153.92;1840413;78;26322;-76
2021/01/13 03:33:14;;;;;;;15.97;10.77;;;;;;;3.47;100.00;102160.13;1840560;78;26689;-77
2021/01/13 03:35:46;;;;;;;14.43;9.90;;;;;;;3.53;100.00;102152.45;1809927;78;26255;-76
2021/01/13 03:38:19;;;;;;;15.23;10.07;;;;;;;3.56;100.00;102159.75;1814558;79;26704;-76
2021/01/13 03:40:50;;;;;;;14.63;10.10;;;;;;;3.56;100.00;102156.14;1801498;80;26256;-76
2021/01/13 03:43:22;;;;;;;15.53;10.60;;;;;;;3.64;100.00;102157.33;1818338;78;26212;-76
2021/01/13 03:45:55;;;;;;;17.70;11.03;;;;;;;3.61;100.00;102155.86;1818298;78;26659;-76
2021/01/13 03:48:43;;;;;;;22.13;13.27;;;;;;;3.74;100.00;102152.81;1812429;79;26259;-76
2021/01/13 03:51:39;;;;;;;20.13;12.47;;;;;;;3.73;100.00;102149.21;1848910;77;26265;-76
2021/01/13 03:54:11;;;;;;;17.47;11.97;;;;;;;3.85;100.00;102146.16;1845968;78;26223;-76
2021/01/13 03:56:49;;;;;;;19.83;12.50;;;;;;;3.73;100.00;102140.97;1845836;78;26280;-76
2021/01/13 03:59:22;;;;;;;19.23;11.93;;;;;;;3.75;100.00;102136.13;1846802;76;26230;-77
2021/01/13 04:01:59;;;;;;;17.70;11.80;;;;;;;3.80;100.00;102134.13;1809022;79;26208;-76
2021/01/13 04:04:48;;;;;;;20.40;13.00;;;;;;;3.78;100.00;102130.73;1845251;77;26689;-77
2021/01/13 04:07:20;;;;;;;19.80;12.77;;;;;;;3.82;100.00;102124.61;1840467;78;26707;-76
2021/01/13 04:09:53;;;;;;;20.90;12.43;;;;;;;3.81;100.00;102118.78;1840753;78;26314;-77
2021/01/13 04:12:25;;;;;;;19.00;12.33;;;;;;;3.87;100.00;102119.33;1840765;78;26233;-77
2021/01/13 04:14:59;;;;;;;20.57;13.17;;;;;;;3.86;100.00;102112.66;1824416;78;26278;-77
2021/01/13 04:17:29;;;;;;;20.83;13.03;;;;;;;3.88;100.00;102105.06;1832719;78;26751;-76
2021/01/13 04:20:00;;;;;;;16.93;12.53;;;;;;;3.84;100.00;102111.52;1808807;79;26248;-77
2021/01/13 04:22:31;;;;;;;21.87;12.23;;;;;;;3.91;100.00;102109.61;1852119;77;26228;-77
2021/01/13 04:25:01;;;;;;;22.47;13.57;;;;;;;3.88;100.00;102108.66;1852041;77;26233;-77
2021/01/13 04:27:32;;;;;;;22.00;13.03;;;;;;;3.93;100.00;102103.91;1846397;77;26225;-77
2021/01/13 04:30:02;;;;;;;19.27;12.73;;;;;;;3.98;100.00;102098.07;1840374;76;26285;-77
2021/01/13 04:32:33;;;;;;;21.60;12.97;;;;;;;3.92;100.00;102093.96;1840546;78;26711;-75
2021/01/13 04:35:04;;;;;;;21.07;13.33;;;;;;;4.05;100.00;102086.56;1840574;78;26226;-75
2021/01/13 04:37:36;;;;;;;21.87;13.03;;;;;;;4.03;100.00;102087.81;1840556;78;26704;-76
2021/01/13 04:40:13;;;;;;;25.70;14.00;;;;;;;4.01;100.00;102083.08;1840547;78;26237;-76
2021/01/13 04:42:47;;;;;;;22.33;13.33;;;;;;;4.01;100.00;102077.58;1792300;78;26219;-75
2021/01/13 04:45:22;;;;;;;21.43;14.97;;;;;;;4.15;100.00;102075.67;1823951;78;26705;-76
2021/01/13 04:47:54;;;;;;;22.87;14.17;;;;;;;4.08;100.00;102070.16;1826216;77;26720;-75
2021/01/13 04:50:26;;;;;;;23.20;14.27;;;;;;;4.02;100.00;102062.78;1819035;79;26808;-76
2021/01/13 04:52:59;;;;;;;23.83;14.30;;;;;;;4.01;100.00;102059.70;1820182;79;26339;-77
2021/01/13 04:55:29;;;;;;;23.80;15.23;;;;;;;4.03;100.00;102058.42;1820139;79;26240;-77
2021/01/13 04:58:48;;;;;;;21.30;14.37;;;;;;;4.06;100.00;102055.24;1820156;79;26714;-76
2021/01/13 05:01:40;;;;;;;21.03;14.93;;;;;;;4.07;100.00;102051.97;1796999;79;934786;-76
2021/01/13 05:04:21;;;;;;;22.53;14.30;;;;;;;4.07;100.00;102051.97;1819752;79;26768;-76
2021/01/13 05:06:55;;;;;;;25.73;14.20;;;;;;;4.18;100.00;102049.97;1820043;79;26804;-76
2021/01/13 05:09:27;;;;;;;28.23;14.97;;;;;;;4.17;100.00;102042.77;1816898;78;26267;-76
2021/01/13 05:11:57;;;;;;;23.10;14.63;;;;;;;4.34;100.00;102042.63;1819438;79;26287;-76
2021/01/13 05:14:30;;;;;;;26.13;15.90;;;;;;;4.31;100.00;102038.09;1820163;79;26361;-76
2021/01/13 05:17:05;;;;;;;25.37;15.77;;;;;;;4.36;100.00;102033.64;1819785;79;26683;-76
2021/01/13 05:20:03;;;;;;;23.47;15.43;;;;;;;4.30;100.00;102033.12;1820164;79;26254;-76
2021/01/13 05:22:35;;;;;;;26.53;16.37;;;;;;;4.34;100.00;102039.03;1805555;79;26252;-77
2021/01/13 05:25:08;;;;;;;26.53;16.03;;;;;;;4.28;100.00;102029.72;1820204;79;26327;-76
2021/01/13 05:27:59;;;;;;;28.07;16.03;;;;;;;4.36;100.00;102041.05;1820157;79;26311;-77
2021/01/13 05:30:32;;;;;;;28.27;16.40;;;;;;;4.40;100.00;102041.78;1820207;77;26288;-76
2021/01/13 05:33:03;;;;;;;27.63;17.07;;;;;;;4.33;100.00;102040.92;1820224;79;26694;-76
2021/01/13 05:35:37;;;;;;;27.83;16.27;;;;;;;4.25;100.00;102037.03;1820291;79;26706;-76
2021/01/13 05:38:16;;;;;;;27.17;15.97;;;;;;;4.39;100.00;102043.36;1820226;79;26240;-76
2021/01/13 05:40:52;;;;;;;27.10;17.40;;;;;;;4.48;100.00;102037.94;1820118;79;26310;-77
2021/01/13 05:43:23;;;;;;;25.13;16.27;;;;;;;4.43;100.00;102025.36;1820108;79;26348;-77
2021/01/13 05:45:55;;;;;;;29.70;17.67;;;;;;;4.48;100.00;102029.16;1820053;79;26742;-76
2021/01/13 05:48:27;;;;;;;27.80;16.93;;;;;;;4.50;100.00;102024.27;1820191;79;26263;-76
2021/01/13 05:50:58;;;;;;;33.93;18.17;;;;;;;4.45;100.00;102020.50;1820199;79;26801;-76
2021/01/13 05:53:29;;;;;;;31.67;18.07;;;;;;;4.49;100.00;102025.33;1820241;79;26298;-76
2021/01/13 05:56:02;;;;;;;30.63;18.10;;;;;;;4.47;100.00;102011.48;1820267;79;26294;-76
2021/01/13 05:58:33;;;;;;;26.63;16.67;;;;;;;4.51;100.00;102013.59;1820127;79;26789;-76
2021/01/13 06:01:05;;;;;;;31.20;17.93;;;;;;;4.48;100.00;102007.15;1820199;79;26267;-76
2021/01/13 06:03:36;;;;;;;29.40;17.27;;;;;;;4.55;100.00;102002.98;1819042;79;26244;-77
2021/01/13 06:06:08;;;;;;;27.67;17.03;;;;;;;4.54;100.00;102006.27;1820324;79;26259;-77
2021/01/13 06:08:41;;;;;;;28.27;17.33;;;;;;;4.62;100.00;102007.10;1820353;79;26281;-76
2021/01/13 06:11:13;;;;;;;26.00;16.90;;;;;;;4.63;100.00;101997.23;1819825;79;26326;-77
2021/01/13 06:13:43;;;;;;;30.53;17.83;;;;;;;4.72;100.00;102000.05;1820269;79;26244;-76
2021/01/13 06:16:13;;;;;;;30.20;16.83;;;;;;;4.73;100.00;101996.25;1820304;79;26738;-77
2021/01/13 06:18:44;;;;;;;33.00;17.07;;;;;;;4.68;100.00;101996.05;1820302;79;26256;-77
2021/01/13 06:21:16;;;;;;;33.03;17.13;;;;;;;4.67;100.00;101995.73;1820315;79;26248;-77
2021/01/13 06:23:51;;;;;;;27.73;17.37;;;;;;;4.72;100.00;101995.92;1820321;79;26268;-76
2021/01/13 06:26:23;;;;;;;28.07;16.33;;;;;;;4.78;100.00;101996.97;1820273;79;26255;-76
2021/01/13 06:29:16;;;;;;;29.83;15.77;;;;;;;4.78;100.00;101995.06;1820191;79;26820;-77
2021/01/13 06:31:49;;;;;;;31.33;16.17;;;;;;;4.85;100.00;101994.48;1818686;76;26356;-77
2021/01/13 06:34:30;;;;;;;31.57;17.20;;;;;;;4.90;100.00;102000.72;1819351;79;26738;-76
2021/01/13 06:37:25;;;;;;;27.87;17.27;;;;;;;4.84;100.00;102000.20;1820237;79;26319;-77
2021/01/13 06:39:57;;;;;;;27.37;16.43;;;;;;;4.74;100.00;101997.95;1819298;79;26252;-76
2021/01/13 06:42:33;;;;;;;31.83;17.47;;;;;;;4.89;100.00;101994.89;1820306;79;26323;-76
2021/01/13 06:45:03;;;;;;;30.67;17.17;;;;;;;4.81;100.00;101995.14;1820268;79;26317;-76
2021/01/13 06:47:33;;;;;;;29.00;16.27;;;;;;;4.89;100.00;101997.64;1820244;79;26252;-75
2021/01/13 06:50:04;;;;;;;27.47;16.47;;;;;;;4.86;100.00;101997.56;1820177;79;26259;-76
2021/01/13 06:52:35;;;;;;;32.27;16.60;;;;;;;4.84;100.00;101998.83;1820239;79;26275;-76
2021/01/13 06:55:07;;;;;;;33.33;17.70;;;;;;;4.87;100.00;101995.13;1820231;79;26244;-77
2021/01/13 06:57:38;;;;;;;31.77;16.40;;;;;;;4.84;100.00;101995.55;1820252;79;26325;-77
2021/01/13 07:00:12;;;;;;;32.73;17.30;;;;;;;4.86;100.00;101989.30;1820225;79;26256;-80
2021/01/13 07:02:42;;;;;;;33.87;18.57;;;;;;;4.90;100.00;101993.83;1819285;79;26326;-78
2021/01/13 07:05:14;;;;;;;32.43;16.47;;;;;;;4.92;100.00;101989.78;1820219;79;26327;-77
2021/01/13 07:07:46;;;;;;;33.57;16.30;;;;;;;4.89;100.00;101985.25;1817501;79;26642;-78
2021/01/13 07:10:18;;;;;;;27.73;16.10;;;;;;;4.97;100.00;101984.99;1820253;79;26267;-77
2021/01/13 07:12:51;;;;;;;34.13;16.97;;;;;;;5.03;100.00;101981.38;1820170;79;26338;-78
2021/01/13 07:15:22;;;;;;;31.83;17.40;;;;;;;4.97;100.00;101982.24;1820325;79;26252;-77
2021/01/13 07:17:54;;;;;;;29.30;17.00;;;;;;;5.11;100.00;101981.10;1820301;79;26259;-77
2021/01/13 07:20:24;;;;;;;29.10;16.80;;;;;;;5.01;100.00;101980.73;1820216;79;26788;-77
2021/01/13 07:22:55;;;;;;;32.27;17.17;;;;;;;5.03;100.00;101972.58;1820234;79;26279;-77
2021/01/13 07:25:26;;;;;;;34.10;17.77;;;;;;;5.12;100.00;101976.44;1820203;79;26741;-77
2021/01/13 07:27:57;;;;;;;47.03;17.90;;;;;;;5.12;100.00;101972.31;1820288;79;26322;-78
2021/01/13 07:30:31;;;;;;;34.90;16.93;;;;;;;5.05;100.00;101966.30;1820093;75;26246;-78
2021/01/13 07:33:02;;;;;;;33.90;18.03;;;;;;;5.05;100.00;101968.20;1820211;79;26707;-77
2021/01/13 07:35:34;;;;;;;35.13;16.43;;;;;;;5.12;100.00;101970.94;1819773;79;26365;-78
2021/01/13 07:38:06;;;;;;;29.93;16.57;;;;;;;5.17;100.00;101974.72;1820247;79;26339;-77
2021/01/13 07:40:37;;;;;;;34.43;17.27;;;;;;;5.14;100.00;101967.41;1820291;79;26325;-78
2021/01/13 07:43:09;;;;;;;37.57;18.77;;;;;;;5.14;100.00;101961.38;1820264;79;26251;-78
2021/01/13 07:45:44;;;;;;;32.33;17.13;;;;;;;5.13;100.00;101965.75;1820233;79;26260;-78
2021/01/13 07:48:56;;;;;;;33.43;17.37;;;;;;;5.17;100.00;101966.45;1820193;79;26722;-77
2021/01/13 07:51:29;;;;;;;33.57;17.50;;;;;;;5.19;100.00;101965.69;1817848;79;26753;-78
2021/01/13 07:54:07;;;;;;;34.33;18.20;;;;;;;5.21;100.00;101969.61;1819754;79;26251;-78
2021/01/13 07:56:40;;;;;;;35.20;17.43;;;;;;;5.29;100.00;101966.05;1820280;79;26323;-78
2021/01/13 07:59:34;;;;;;;35.53;17.33;;;;;;;5.29;100.00;101969.33;1819955;79;26314;-78
2021/01/13 08:02:56;;;;;;;34.87;17.07;;;;;;;5.28;100.00;101967.64;1820225;79;26243;-77
2021/01/13 08:06:16;;;;;;;32.20;16.10;;;;;;;5.27;100.00;101964.03;1820404;79;26240;-77
2021/01/13 08:09:10;;;;;;;33.23;16.60;;;;;;;5.20;100.00;101971.52;1818991;79;26702;-77
2021/01/13 08:12:19;;;;;;;33.83;16.80;;;;;;;5.21;100.00;101977.34;1820368;79;26267;-79
2021/01/13 08:15:18;;;;;;;33.60;17.07;;;;;;;5.23;100.00;101971.06;1819557;79;26268;-80
2021/01/13 08:18:16;;;;;;;33.10;16.47;;;;;;;5.30;100.00;101973.25;1818813;79;26244;-78
2021/01/13 08:21:15;;;;;;;766.80;130.37;;;;;;;5.36;100.00;101979.23;1819285;79;26244;-80
2021/01/13 08:23:51;;;;;;;33.80;16.33;;;;;;;5.45;100.00;101983.94;1820163;79;26723;-78
2021/01/13 08:26:22;;;;;;;36.63;17.10;;;;;;;5.51;100.00;101981.67;1820422;79;26243;-79
2021/01/13 08:28:53;;;;;;;32.80;17.47;;;;;;;5.44;100.00;101981.70;1820387;79;26248;-79
2021/01/13 08:31:25;;;;;;;33.10;17.00;;;;;;;5.46;100.00;101975.45;1820167;77;26279;-79
2021/01/13 08:34:09;;;;;;;35.10;16.77;;;;;;;5.49;100.00;101972.24;1820201;79;26704;-78
2021/01/13 08:36:41;;;;;;;31.07;16.40;;;;;;;5.56;100.00;101974.11;1820272;79;26318;-79
2021/01/13 08:39:14;;;;;;;30.47;16.20;;;;;;;5.59;100.00;101971.75;1818878;79;26870;-82
2021/01/13 08:41:45;;;;;;;33.80;17.70;;;;;;;5.65;100.00;101972.77;1820243;79;26255;-79
2021/01/13 08:44:17;;;;;;;33.87;17.00;;;;;;;5.70;100.00;101969.62;1820225;79;26256;-82
2021/01/13 08:46:50;;;;;;;32.93;16.23;;;;;;;5.73;100.00;101971.10;1820245;79;26262;-80
2021/01/13 08:49:26;;;;;;;36.73;18.03;;;;;;;5.78;100.00;101969.33;1820314;79;26707;-75
2021/01/13 08:52:14;;;;;;;33.77;16.47;;;;;;;5.77;100.00;101962.16;1820190;79;26337;-77
2021/01/13 08:54:46;;;;;;;31.10;15.60;;;;;;;5.82;100.00;101965.58;1820382;79;26290;-80
2021/01/13 08:57:17;;;;;;;32.90;16.27;;;;;;;5.77;100.00;101960.77;1820207;79;26244;-80
2021/01/13 08:59:48;;;;;;;37.10;17.07;;;;;;;5.81;100.00;101961.16;1820242;79;26240;-77
2021/01/13 09:02:20;;;;;;;36.40;18.27;;;;;;;5.89;100.00;101956.77;1820230;79;26252;-79
2021/01/13 09:04:53;;;;;;;33.23;16.57;;;;;;;5.89;100.00;101947.11;1820207;79;26244;-80
2021/01/13 09:07:26;;;;;;;33.63;17.23;;;;;;;5.92;100.00;101950.25;1820183;79;26393;-78
2021/01/13 09:09:59;;;;;;;30.73;15.97;;;;;;;5.92;100.00;101949.41;1820249;79;26781;-78
2021/01/13 09:12:38;;;;;;;33.57;17.40;;;;;;;5.97;100.00;101950.10;1820169;79;26702;-79
2021/01/13 09:15:34;;;;;;;35.73;16.93;;;;;;;6.10;100.00;101945.30;1820162;79;26730;-80
2021/01/13 09:18:04;;;;;;;31.53;17.47;;;;;;;6.16;100.00;101942.98;1820178;79;26241;-80
2021/01/13 09:20:34;;;;;;;36.83;17.33;;;;;;;6.19;100.00;101943.92;1820163;79;26710;-82
2021/01/13 09:23:05;;;;;;;32.57;17.23;;;;;;;6.15;100.00;101944.61;1820236;79;26269;-78
2021/01/13 09:25:41;;;;;;;34.67;17.73;;;;;;;6.18;100.00;101942.23;1820243;79;26264;-80
2021/01/13 09:28:17;;;;;;;35.87;17.00;;;;;;;6.08;100.00;101936.92;1819959;79;26782;-82
2021/01/13 09:30:48;;;;;;;37.00;17.97;;;;;;;6.22;100.00;101932.42;1820254;79;26776;-90
2021/01/13 09:33:20;;;;;;;35.47;17.13;;;;;;;6.23;100.00;101936.88;1820324;77;26458;-80
2021/01/13 09:35:53;;;;;;;38.40;17.83;;;;;;;6.23;100.00;101934.64;1820242;79;26816;-84
2021/01/13 09:38:30;;;;;;;35.67;18.60;;;;;;;6.30;100.00;101922.45;1819653;79;26242;-86
2021/01/13 09:41:03;;;;;;;39.03;18.33;;;;;;;6.32;100.00;101918.94;1820160;79;26244;-86
2021/01/13 09:43:36;;;;;;;39.47;19.23;;;;;;;6.36;100.00;101920.16;1820293;79;26705;-84
2021/01/13 09:46:08;;;;;;;33.27;17.70;;;;;;;6.35;100.00;101923.98;1820194;79;26263;-80
2021/01/13 09:48:39;;;;;;;35.07;16.83;;;;;;;6.39;100.00;101920.22;1820122;79;26710;-85
2021/01/13 09:51:10;;;;;;;37.70;18.67;;;;;;;6.42;100.00;101921.13;1820093;79;26235;-83
2021/01/13 09:53:48;;;;;;;43.17;20.93;;;;;;;6.49;100.00;101921.91;1820288;79;26239;-80
2021/01/13 09:56:19;;;;;;;38.80;19.73;;;;;;;6.51;100.00;101928.02;1820195;79;26260;-82
2021/01/13 09:58:51;;;;;;;38.00;18.77;;;;;;;6.61;100.00;101920.58;1820160;79;26355;-83
2021/01/13 10:01:22;;;;;;;37.47;19.23;;;;;;;6.63;100.00;101921.20;1820191;79;26710;-84
2021/01/13 10:03:55;;;;;;;41.37;19.87;;;;;;;6.61;100.00;101924.18;1820158;79;26283;-83
2021/01/13 10:06:27;;;;;;;40.50;20.67;;;;;;;6.74;100.00;101921.77;1820340;79;26255;-87
2021/01/13 10:08:59;;;;;;;42.27;19.57;;;;;;;6.90;100.00;101923.88;1820240;79;26726;-84
2021/01/13 10:11:30;;;;;;;44.57;21.93;;;;;;;6.88;100.00;101919.14;1820168;79;26332;-83
2021/01/13 10:14:03;;;;;;;43.87;22.03;;;;;;;6.95;100.00;101921.78;1820219;79;26259;-83
2021/01/13 10:16:35;;;;;;;49.77;22.73;;;;;;;7.03;100.00;101920.91;1820069;79;26719;-83
2021/01/13 10:19:06;;;;;;;39.43;20.10;;;;;;;7.06;100.00;101921.81;1819814;79;26338;-85
2021/01/13 10:21:38;;;;;;;43.07;21.37;;;;;;;7.10;100.00;101923.59;1820210;79;26290;-84
2021/01/13 10:24:11;;;;;;;42.13;22.00;;;;;;;7.11;100.00;101919.73;1820162;78;26406;-83
2021/01/13 10:26:43;;;;;;;43.30;22.67;;;;;;;7.04;100.00;101917.08;1820245;79;26318;-83
2021/01/13 10:29:16;;;;;;;44.70;21.93;;;;;;;7.15;100.00;101913.49;1820204;79;26240;-80
2021/01/13 10:31:47;;;;;;;48.97;22.67;;;;;;;7.08;100.00;101911.92;1820153;79;26741;-82
2021/01/13 10:34:17;;;;;;;45.67;21.10;;;;;;;7.09;100.00;101917.75;1820139;77;26295;-84
2021/01/13 10:36:49;;;;;;;41.70;22.30;;;;;;;7.10;100.00;101915.30;1820248;79;26232;-83
2021/01/13 10:39:24;;;;;;;44.23;21.53;;;;;;;7.05;100.00;101916.01;1820153;79;26251;-82
2021/01/13 10:41:57;;;;;;;43.37;22.23;;;;;;;7.15;100.00;101910.73;1820149;79;26250;-81
2021/01/13 10:44:29;;;;;;;48.43;22.57;;;;;;;7.14;100.00;101917.36;1820327;79;26735;-84
2021/01/13 10:47:01;;;;;;;48.50;22.73;;;;;;;7.16;100.00;101915.72;1820354;79;26723;-79
2021/01/13 10:49:33;;;;;;;45.10;22.40;;;;;;;7.25;100.00;101917.91;1820218;79;26341;-84
2021/01/13 10:52:06;;;;;;;41.20;21.77;;;;;;;7.30;100.00;101924.11;1820297;79;26719;-84
2021/01/13 10:54:39;;;;;;;41.30;22.63;;;;;;;7.25;100.00;101919.83;1820422;79;26773;-85
2021/01/13 10:57:10;;;;;;;45.23;22.40;;;;;;;7.28;100.00;101921.58;1820448;79;26240;-81
2021/01/13 10:59:42;;;;;;;41.53;22.93;;;;;;;7.29;100.00;101917.73;1820257;79;26251;-85
2021/01/13 11:02:14;;;;;;;47.13;23.93;;;;;;;7.38;100.00;101921.53;1820267;79;26314;-77
2021/01/13 11:04:46;;;;;;;46.63;23.23;;;;;;;7.43;100.00;101912.84;1820210;79;26793;-82
2021/01/13 11:07:18;;;;;;;44.03;23.43;;;;;;;7.51;100.00;101913.86;1820433;79;26248;-78
2021/01/13 11:09:50;;;;;;;39.47;22.20;;;;;;;7.55;100.00;101908.70;1820319;79;26706;-83
2021/01/13 11:12:22;;;;;;;43.97;23.00;;;;;;;7.57;100.00;101916.22;1820574;79;26227;-85
2021/01/13 11:14:54;;;;;;;42.13;23.07;;;;;;;7.46;100.00;101910.97;1820385;79;26331;-83
2021/01/13 11:17:25;;;;;;;46.70;23.17;;;;;;;7.53;100.00;101908.92;1820375;79;26264;-87
2021/01/13 11:19:59;;;;;;;47.20;23.23;;;;;;;7.43;100.00;101900.40;1820468;79;26334;-84
2021/01/13 11:22:45;;;;;;;41.13;22.80;;;;;;;7.63;100.00;101898.66;1820259;79;26322;-80
2021/01/13 11:25:23;;;;;;;44.53;23.23;;;;;;;7.51;100.00;101899.20;1820237;79;26809;-83
2021/01/13 11:27:58;;;;;;;45.40;23.20;;;;;;;7.74;100.00;101893.11;1820337;79;26275;-80
2021/01/13 11:30:29;;;;;;;43.57;21.73;;;;;;;7.73;100.00;101890.61;1820275;79;26325;-82
2021/01/13 11:33:01;;;;;;;45.57;23.63;;;;;;;7.82;100.00;101889.70;1820199;79;26325;-82
2021/01/13 11:35:34;;;;;;;43.87;22.90;;;;;;;7.70;100.00;101889.16;1820385;79;26365;-81
2021/01/13 11:38:39;;;;;;;44.03;24.30;;;;;;;7.88;100.00;101889.56;1820205;79;26381;-81
2021/01/13 11:41:42;;;;;;;38.73;21.87;;;;;;;7.96;100.00;101891.95;1820528;79;26242;-78
2021/01/13 11:44:29;;;;;;;41.67;22.47;;;;;;;7.73;100.00;101883.70;1818751;79;26239;-82
2021/01/13 11:47:23;;;;;;;43.97;22.60;;;;;;;7.94;100.00;101887.77;1820438;79;26251;-80